Time;durP1;ratioP1;P1;durP2;ratioP2;P2;SDS_P1;SDS_P2;PMS_P1;PMS_P2;Temp;Humidity;BMP_temperature;BMP_pressure;BME280_temperature;BME280_humidity;BME280_pressure;Samples;Min_cycle;Max_cycle;Signal;HPM_P1;HPM_P2
2024/03/17 00:01:50;;;;;;;6.65;4.07;;;7.30;79.90;;;;;;5070885;28;20048;-40
2024/03/17 00:04:16;;;;;;;9.35;4.45;;;7.30;79.30;;;;;;5071688;28;20031;-31
2024/03/17 00:06:41;;;;;;;6.78;4.07;;;7.30;79.30;;;;;;5071904;28;20031;-33
2024/03/17 00:09:09;;;;;;;9.18;4.40;;;7.30;79.40;;;;;;5071800;28;20107;-33
2024/03/17 00:11:35;;;;;;;8.10;4.13;;;7.30;79.40;;;;;;5072220;28;20539;-32
2024/03/17 00:14:01;;;;;;;7.97;4.45;;;7.30;79.40;;;;;;5071977;28;20143;-31
2024/03/17 00:16:27;;;;;;;8.18;4.45;;;7.30;79.50;;;;;;5071625;28;20371;-33
2024/03/17 00:18:53;;;;;;;9.52;4.97;;;7.30;79.60;;;;;;5071532;28;20027;-31
2024/03/17 00:21:19;;;;;;;8.70;4.88;;;7.30;79.50;;;;;;5070464;28;20020;-38
2024/03/17 00:23:49;;;;;;;9.60;4.90;;;7.40;79.60;;;;;;5071955;28;20098;-41
2024/03/17 00:26:15;;;;;;;6.43;4.32;;;7.40;79.50;;;;;;5072002;28;20032;-32
2024/03/17 00:28:41;;;;;;;8.13;4.80;;;7.40;79.80;;;;;;5071943;28;20611;-32
2024/03/17 00:31:09;;;;;;;9.20;4.30;;;7.40;79.60;;;;;;5071901;28;20021;-31
2024/03/17 00:33:35;;;;;;;10.38;4.68;;;7.30;79.60;;;;;;5071511;28;20051;-31
2024/03/17 00:36:01;;;;;;;11.18;4.38;;;7.40;79.60;;;;;;5071527;28;20084;-31
2024/03/17 00:38:26;;;;;;;7.13;4.13;;;7.40;79.60;;;;;;5071526;28;20066;-32
2024/03/17 00:40:52;;;;;;;9.55;4.57;;;7.40;79.70;;;;;;5071715;28;20095;-30
2024/03/17 00:43:17;;;;;;;12.13;4.40;;;7.40;79.70;;;;;;5071663;28;20466;-36
2024/03/17 00:45:43;;;;;;;9.80;4.95;;;7.40;79.80;;;;;;5071668;28;20021;-34
2024/03/17 00:48:09;;;;;;;10.10;4.35;;;7.30;79.70;;;;;;5071461;28;20036;-32
2024/03/17 00:50:35;;;;;;;8.35;4.68;;;7.40;79.90;;;;;;5071598;28;20056;-31
2024/03/17 00:53:03;;;;;;;9.27;4.65;;;7.40;79.90;;;;;;5075177;28;20063;-31
2024/03/17 00:55:28;;;;;;;8.98;4.22;;;7.30;80.00;;;;;;5073772;28;20060;-34
2024/03/17 00:57:54;;;;;;;7.43;4.47;;;7.30;80.00;;;;;;5075060;28;20052;-31
2024/03/17 01:00:20;;;;;;;8.20;4.20;;;7.30;80.10;;;;;;5074980;28;20078;-32
2024/03/17 01:02:46;;;;;;;6.13;4.00;;;7.30;80.20;;;;;;5074872;28;20025;-33
2024/03/17 01:05:11;;;;;;;8.50;4.05;;;7.30;80.20;;;;;;5074945;28;20060;-33
2024/03/17 01:07:37;;;;;;;5.93;3.80;;;7.30;80.30;;;;;;5074857;28;20031;-44
2024/03/17 01:10:03;;;;;;;8.30;4.38;;;7.30;80.30;;;;;;5075154;28;20082;-32
2024/03/17 01:12:29;;;;;;;6.88;3.83;;;7.30;80.30;;;;;;5074809;28;20095;-32
2024/03/17 01:14:54;;;;;;;7.47;4.40;;;7.30;80.40;;;;;;5075091;28;20094;-31
2024/03/17 01:17:20;;;;;;;8.13;4.80;;;7.30;80.50;;;;;;5074356;28;20024;-33
2024/03/17 01:19:46;;;;;;;8.02;5.47;;;7.30;80.40;;;;;;5073544;28;20027;-33
2024/03/17 01:22:11;;;;;;;8.00;4.63;;;7.30;81.20;;;;;;5074729;28;20498;-31
2024/03/17 01:24:39;;;;;;;7.60;4.53;;;7.30;80.60;;;;;;5074877;28;20052;-36
2024/03/17 01:27:06;;;;;;;7.43;4.22;;;7.30;80.60;;;;;;5074877;28;20098;-33
2024/03/17 01:29:31;;;;;;;10.55;4.40;;;7.30;80.70;;;;;;5074547;28;20031;-32
2024/03/17 01:31:57;;;;;;;7.40;4.03;;;7.20;80.70;;;;;;5074747;28;20021;-32
2024/03/17 01:34:23;;;;;;;6.90;3.80;;;7.20;80.70;;;;;;5073105;28;20024;-31
2024/03/17 01:36:48;;;;;;;7.30;4.30;;;7.20;80.70;;;;;;5074044;28;20577;-31
2024/03/17 01:39:15;;;;;;;9.88;3.95;;;7.20;80.80;;;;;;5074348;28;20029;-31
2024/03/17 01:41:41;;;;;;;9.10;4.20;;;7.20;80.80;;;;;;5074801;28;20403;-30
2024/03/17 01:44:07;;;;;;;8.90;3.85;;;7.20;80.90;;;;;;5074301;28;20505;-32
2024/03/17 01:46:33;;;;;;;10.65;3.95;;;7.20;80.90;;;;;;5073877;28;20055;-35
2024/03/17 01:48:59;;;;;;;6.38;3.85;;;7.30;80.90;;;;;;5074156;28;20035;-36
2024/03/17 01:51:25;;;;;;;8.55;4.45;;;7.30;80.90;;;;;;5074498;28;20022;-39
2024/03/17 01:53:51;;;;;;;8.40;4.97;;;7.30;80.90;;;;;;5073842;28;20024;-40
2024/03/17 01:56:17;;;;;;;9.23;4.97;;;7.30;81.50;;;;;;5073969;28;20028;-31
2024/03/17 01:58:45;;;;;;;8.10;4.38;;;7.30;80.90;;;;;;5074223;28;20020;-31
2024/03/17 02:01:14;;;;;;;8.73;4.43;;;7.20;80.90;;;;;;5073655;28;20024;-32
2024/03/17 02:03:41;;;;;;;11.73;7.05;;;7.30;81.00;;;;;;5073177;28;20017;-31
2024/03/17 02:06:09;;;;;;;8.45;5.30;;;7.30;81.00;;;;;;5072753;28;20489;-40
2024/03/17 02:08:51;;;;;;;9.32;5.00;;;7.20;81.00;;;;;;5073810;28;20051;-31
2024/03/17 02:11:28;;;;;;;12.15;5.53;;;7.20;81.60;;;;;;5073781;28;20033;-32
2024/03/17 02:13:55;;;;;;;8.50;4.90;;;7.20;81.10;;;;;;5073946;28;20547;-32
2024/03/17 02:16:21;;;;;;;8.32;4.95;;;7.20;81.10;;;;;;5073767;28;20020;-33
2024/03/17 02:18:47;;;;;;;8.38;4.85;;;7.20;81.20;;;;;;5072145;28;20024;-31
2024/03/17 02:21:15;;;;;;;9.02;4.47;;;7.20;81.30;;;;;;5073408;28;20035;-32
2024/03/17 02:23:44;;;;;;;7.68;4.30;;;7.20;81.30;;;;;;5073450;28;20103;-33
2024/03/17 02:26:10;;;;;;;6.55;3.90;;;7.10;81.30;;;;;;5073503;28;20025;-32
2024/03/17 02:28:44;;;;;;;11.80;5.80;;;7.10;81.40;;;;;;5073363;28;20380;-31
2024/03/17 02:31:11;;;;;;;9.57;5.90;;;7.10;81.40;;;;;;5073230;28;20040;-33
2024/03/17 02:33:38;;;;;;;7.50;4.90;;;7.10;81.40;;;;;;5073620;28;20025;-33
2024/03/17 02:36:06;;;;;;;10.15;4.72;;;7.10;81.50;;;;;;5073124;28;20484;-32
2024/03/17 02:41:20;;;;;;;8.00;4.75;;;7.10;81.50;;;;;;5073267;28;20434;-30
2024/03/17 02:43:46;;;;;;;5.68;4.25;;;7.20;81.60;;;;;;5071818;28;20504;-32
2024/03/17 02:46:14;;;;;;;7.50;4.00;;;7.20;81.50;;;;;;5073183;28;20025;-31
2024/03/17 02:48:44;;;;;;;8.77;4.10;;;7.20;81.50;;;;;;5073119;28;20082;-35
2024/03/17 02:51:12;;;;;;;6.80;4.10;;;7.20;81.50;;;;;;5073362;28;20353;-33
2024/03/17 02:53:39;;;;;;;7.47;4.20;;;7.30;81.60;;;;;;5073266;28;20431;-34
2024/03/17 02:56:06;;;;;;;9.35;4.50;;;7.30;81.60;;;;;;5072722;28;20024;-38
2024/03/17 02:58:33;;;;;;;8.52;4.50;;;7.30;81.60;;;;;;5072786;28;20025;-30
2024/03/17 03:00:59;;;;;;;6.55;4.10;;;7.40;81.60;;;;;;5073087;28;20020;-32
2024/03/17 03:03:24;;;;;;;5.70;3.72;;;7.40;81.60;;;;;;5073093;28;20096;-36
2024/03/17 03:05:50;;;;;;;9.57;4.43;;;7.40;81.60;;;;;;5073199;28;20023;-33
2024/03/17 03:08:16;;;;;;;5.88;4.20;;;7.40;81.60;;;;;;5073427;28;20036;-31
2024/03/17 03:10:44;;;;;;;8.10;4.50;;;7.40;81.60;;;;;;5072938;28;20361;-37
2024/03/17 03:13:10;;;;;;;9.98;4.40;;;7.40;81.60;;;;;;5071666;28;20016;-39
2024/03/17 03:15:35;;;;;;;7.38;3.92;;;7.40;81.60;;;;;;5071974;28;20397;-32
2024/03/17 03:18:01;;;;;;;8.13;4.50;;;7.40;81.60;;;;;;5072659;28;20104;-32
2024/03/17 03:20:28;;;;;;;6.55;4.05;;;7.50;81.60;;;;;;5072940;28;20032;-35
2024/03/17 03:22:53;;;;;;;5.47;4.00;;;7.50;81.60;;;;;;5073142;28;20024;-32
2024/03/17 03:25:19;;;;;;;11.00;5.07;;;7.50;81.60;;;;;;5071513;28;20078;-35
2024/03/17 03:27:44;;;;;;;9.98;4.90;;;7.60;81.70;;;;;;5073010;28;20086;-39
2024/03/17 03:30:11;;;;;;;7.80;4.28;;;7.60;81.70;;;;;;5072746;28;20526;-42
2024/03/17 03:32:38;;;;;;;7.35;4.60;;;7.60;81.60;;;;;;5073059;28;20095;-37
2024/03/17 03:35:04;;;;;;;7.40;4.18;;;7.60;81.60;;;;;;5072505;28;20124;-36
2024/03/17 03:37:31;;;;;;;8.80;4.50;;;7.60;81.60;;;;;;5072496;28;20039;-36
2024/03/17 03:39:58;;;;;;;7.68;4.45;;;7.70;81.70;;;;;;5072819;28;20021;-36
2024/03/17 03:42:24;;;;;;;8.18;4.40;;;7.70;81.60;;;;;;5072841;28;20024;-32
2024/03/17 03:44:49;;;;;;;5.40;4.05;;;7.70;81.60;;;;;;5072420;28;20089;-31
2024/03/17 03:47:15;;;;;;;7.38;4.18;;;7.70;81.70;;;;;;5072726;28;20515;-35
2024/03/17 03:49:41;;;;;;;6.38;4.55;;;7.70;81.70;;;;;;5072435;28;20081;-31
2024/03/17 03:52:06;;;;;;;6.82;4.15;;;7.70;81.70;;;;;;5072572;28;20029;-31
2024/03/17 03:54:32;;;;;;;8.52;4.60;;;7.70;81.60;;;;;;5072540;28;20114;-32
2024/03/17 03:56:57;;;;;;;8.10;4.32;;;7.80;81.70;;;;;;5072162;28;20036;-32
2024/03/17 03:59:24;;;;;;;6.63;4.38;;;7.80;81.70;;;;;;5072168;28;20493;-32
2024/03/17 04:01:49;;;;;;;9.27;4.45;;;7.80;81.70;;;;;;5072047;28;20024;-31
2024/03/17 04:04:15;;;;;;;9.20;4.78;;;7.80;81.70;;;;;;5072483;28;20025;-31
2024/03/17 04:06:41;;;;;;;6.95;4.50;;;7.80;81.60;;;;;;5072245;28;20078;-32
2024/03/17 04:09:06;;;;;;;6.03;4.65;;;7.80;81.70;;;;;;5072337;28;20025;-31
2024/03/17 04:11:35;;;;;;;7.45;5.07;;;7.80;81.70;;;;;;5072605;28;20031;-34
2024/03/17 04:14:01;;;;;;;9.82;5.18;;;7.80;81.70;;;;;;5072577;28;20028;-31
2024/03/17 04:16:28;;;;;;;8.57;5.07;;;7.90;81.80;;;;;;5072116;28;20025;-31
2024/03/17 04:18:53;;;;;;;5.50;4.45;;;7.80;81.70;;;;;;5072503;28;20456;-31
2024/03/17 04:21:21;;;;;;;6.70;5.05;;;7.90;81.80;;;;;;5072481;28;20029;-32
2024/03/17 04:23:46;;;;;;;11.18;5.07;;;7.90;81.80;;;;;;5072490;28;20021;-40
2024/03/17 04:26:12;;;;;;;9.15;4.35;;;7.90;81.80;;;;;;5073260;28;20082;-30
2024/03/17 04:28:38;;;;;;;7.32;4.82;;;7.80;81.70;;;;;;5076051;28;20017;-30
2024/03/17 04:31:08;;;;;;;6.85;4.80;;;7.80;81.80;;;;;;5076094;28;20036;-31
2024/03/17 04:33:34;;;;;;;7.15;4.93;;;7.90;81.90;;;;;;5076052;28;20016;-32
2024/03/17 04:36:02;;;;;;;6.50;4.75;;;7.90;81.90;;;;;;5075863;28;20389;-37
2024/03/17 04:38:27;;;;;;;7.72;4.63;;;7.90;81.90;;;;;;5076274;28;20028;-32
2024/03/17 04:41:03;;;;;;;7.00;4.88;;;7.90;81.90;;;;;;5075783;28;20029;-31
2024/03/17 04:43:31;;;;;;;7.15;5.00;;;7.90;81.90;;;;;;5076294;28;20017;-32
2024/03/17 04:46:03;;;;;;;8.90;4.65;;;7.90;81.90;;;;;;5075867;28;20020;-33
2024/03/17 04:48:29;;;;;;;7.20;4.88;;;7.90;82.00;;;;;;5075692;28;20029;-33
2024/03/17 04:50:55;;;;;;;8.95;4.88;;;7.90;81.90;;;;;;5075998;28;20028;-33
2024/03/17 04:53:20;;;;;;;6.97;5.05;;;7.90;82.00;;;;;;5075674;28;20099;-31
2024/03/17 04:55:46;;;;;;;8.98;5.05;;;7.80;81.90;;;;;;5075670;28;20218;-36
2024/03/17 04:58:11;;;;;;;9.88;5.35;;;7.80;82.00;;;;;;5075642;28;20025;-33
2024/03/17 05:00:37;;;;;;;7.57;5.20;;;7.80;82.00;;;;;;5075645;28;20036;-34
2024/03/17 05:03:03;;;;;;;8.60;5.35;;;7.80;82.10;;;;;;5075773;28;20013;-33
2024/03/17 05:05:29;;;;;;;7.18;5.10;;;7.80;82.20;;;;;;5075545;28;20035;-32
2024/03/17 05:07:55;;;;;;;8.88;5.47;;;7.70;82.20;;;;;;5074121;28;20020;-31
2024/03/17 05:10:20;;;;;;;8.00;5.35;;;7.70;82.20;;;;;;5075600;28;20023;-32
2024/03/17 05:12:47;;;;;;;7.72;5.50;;;7.70;82.40;;;;;;5075308;28;20070;-47
2024/03/17 05:15:13;;;;;;;10.90;5.80;;;7.70;82.40;;;;;;5075603;28;20028;-32
2024/03/17 05:17:39;;;;;;;6.72;5.05;;;7.70;82.50;;;;;;5075300;28;20346;-35
2024/03/17 05:20:06;;;;;;;9.38;5.35;;;7.60;82.50;;;;;;5075376;28;20017;-33
2024/03/17 05:22:31;;;;;;;6.22;5.38;;;7.70;82.60;;;;;;5075405;28;20077;-30
2024/03/17 05:24:57;;;;;;;8.32;5.43;;;7.70;82.70;;;;;;5075215;28;20457;-35
2024/03/17 05:27:22;;;;;;;8.32;5.90;;;7.70;82.60;;;;;;5074866;28;20028;-30
2024/03/17 05:29:50;;;;;;;9.70;6.03;;;7.70;82.70;;;;;;5075268;28;20162;-31
2024/03/17 05:32:16;;;;;;;8.32;5.65;;;7.70;82.60;;;;;;5075073;28;20039;-36
2024/03/17 05:34:41;;;;;;;10.00;5.65;;;7.70;82.60;;;;;;5074794;28;20024;-34
2024/03/17 05:37:07;;;;;;;8.52;5.55;;;7.70;82.70;;;;;;5074302;28;20147;-33
2024/03/17 05:39:32;;;;;;;7.97;5.68;;;7.70;82.80;;;;;;5074306;28;20056;-31
2024/03/17 05:41:58;;;;;;;10.55;5.63;;;7.70;82.80;;;;;;5075045;28;20028;-38
2024/03/17 05:44:23;;;;;;;7.50;5.38;;;7.60;82.90;;;;;;5074702;28;20509;-34
2024/03/17 05:46:51;;;;;;;7.82;5.93;;;7.60;82.90;;;;;;5074573;28;20035;-31
2024/03/17 05:49:17;;;;;;;8.52;5.82;;;7.60;83.00;;;;;;5074604;28;20029;-32
2024/03/17 05:51:43;;;;;;;9.02;6.05;;;7.70;83.10;;;;;;5075021;28;20021;-36
2024/03/17 05:54:08;;;;;;;9.27;6.00;;;7.70;83.10;;;;;;5074728;28;20099;-33
2024/03/17 05:56:34;;;;;;;7.28;5.68;;;7.70;83.10;;;;;;5074556;28;20056;-32
2024/03/17 05:59:00;;;;;;;8.45;6.25;;;7.70;83.10;;;;;;5073171;28;20107;-32
2024/03/17 06:01:26;;;;;;;9.27;6.50;;;7.70;83.10;;;;;;5074325;28;20056;-33
2024/03/17 06:03:51;;;;;;;7.63;5.90;;;7.70;83.10;;;;;;5074378;28;20070;-31
2024/03/17 06:06:17;;;;;;;10.68;6.45;;;7.80;83.20;;;;;;5074306;28;20019;-32
2024/03/17 06:08:42;;;;;;;10.20;6.45;;;7.80;83.20;;;;;;5072892;28;20469;-31
2024/03/17 06:11:08;;;;;;;8.25;5.93;;;7.80;83.10;;;;;;5074172;28;20032;-37
2024/03/17 06:13:34;;;;;;;8.07;5.57;;;7.80;83.10;;;;;;5074371;28;20024;-31
2024/03/17 06:16:02;;;;;;;7.70;5.55;;;7.80;83.10;;;;;;5074134;28;20150;-33
2024/03/17 06:18:28;;;;;;;9.40;6.70;;;7.80;83.20;;;;;;5073975;28;20365;-32
2024/03/17 06:20:54;;;;;;;8.60;6.45;;;7.80;83.20;;;;;;5074435;28;20020;-32
2024/03/17 06:23:20;;;;;;;10.85;6.68;;;7.90;83.30;;;;;;5074260;28;20028;-34
2024/03/17 06:25:47;;;;;;;9.13;6.55;;;7.90;83.30;;;;;;5074154;28;20489;-30
2024/03/17 06:28:14;;;;;;;10.45;6.50;;;7.90;83.30;;;;;;5074120;28;20024;-31
2024/03/17 06:30:41;;;;;;;11.23;6.78;;;7.90;83.40;;;;;;5073779;28;20473;-35
2024/03/17 06:33:08;;;;;;;10.25;7.13;;;8.00;83.40;;;;;;5073810;28;20028;-34
2024/03/17 06:35:36;;;;;;;9.95;6.25;;;8.00;83.30;;;;;;5073723;28;20055;-32
2024/03/17 06:38:02;;;;;;;10.13;6.70;;;8.10;83.40;;;;;;5073436;28;20028;-40
2024/03/17 06:40:28;;;;;;;10.10;7.00;;;8.10;83.30;;;;;;5073638;28;20380;-34
2024/03/17 06:42:53;;;;;;;10.60;6.57;;;8.20;83.30;;;;;;5072471;28;20031;-33
2024/03/17 06:45:20;;;;;;;10.07;7.18;;;8.20;83.20;;;;;;5073707;28;20012;-31
2024/03/17 06:47:46;;;;;;;10.45;6.60;;;8.30;83.10;;;;;;5073476;28;20542;-36
2024/03/17 06:50:12;;;;;;;9.18;6.97;;;8.40;83.10;;;;;;5073192;28;20461;-34
2024/03/17 06:52:38;;;;;;;10.77;6.80;;;8.40;83.00;;;;;;5073198;28;20048;-31
2024/03/17 06:55:04;;;;;;;9.82;7.20;;;8.50;83.00;;;;;;5073182;28;20059;-32
2024/03/17 06:57:30;;;;;;;9.25;6.85;;;8.50;83.50;;;;;;5072900;28;20016;-31
2024/03/17 06:59:56;;;;;;;8.20;6.75;;;8.60;82.80;;;;;;5073493;28;20017;-33
2024/03/17 07:02:21;;;;;;;10.93;7.40;;;8.60;82.80;;;;;;5073188;28;20473;-32
2024/03/17 07:04:47;;;;;;;8.77;6.80;;;8.60;82.70;;;;;;5073176;28;20021;-34
2024/03/17 07:07:14;;;;;;;12.15;7.07;;;8.70;82.70;;;;;;5073135;28;20021;-34
2024/03/17 07:09:42;;;;;;;8.85;6.75;;;8.80;82.60;;;;;;5073400;28;20173;-35
2024/03/17 07:12:09;;;;;;;9.52;6.20;;;8.90;82.60;;;;;;5073221;28;20036;-30
2024/03/17 07:14:35;;;;;;;11.60;6.72;;;8.90;82.60;;;;;;5073084;28;20199;-32
2024/03/17 07:17:01;;;;;;;10.32;7.25;;;9.00;82.50;;;;;;5072801;28;20024;-31
2024/03/17 07:19:26;;;;;;;11.63;6.63;;;9.00;82.40;;;;;;5073209;28;20074;-31
2024/03/17 07:21:52;;;;;;;10.75;6.97;;;9.00;82.40;;;;;;5073238;28;20092;-35
2024/03/17 07:24:18;;;;;;;7.97;6.72;;;9.00;82.40;;;;;;5072976;28;20492;-38
2024/03/17 07:26:43;;;;;;;9.38;6.88;;;9.10;82.40;;;;;;5073054;28;20471;-32
2024/03/17 07:29:09;;;;;;;9.10;6.95;;;9.10;82.40;;;;;;5073073;28;20481;-35
2024/03/17 07:31:35;;;;;;;11.27;6.45;;;9.10;82.30;;;;;;5073115;28;20103;-32
2024/03/17 07:34:00;;;;;;;10.65;7.07;;;9.20;82.30;;;;;;5072902;28;20358;-33
2024/03/17 07:36:26;;;;;;;8.68;6.80;;;9.20;82.30;;;;;;5072594;28;20044;-31
2024/03/17 07:38:52;;;;;;;8.80;6.55;;;9.20;82.20;;;;;;5072946;28;20108;-31
2024/03/17 07:41:19;;;;;;;10.30;6.47;;;9.30;82.20;;;;;;5072998;28;20580;-33
2024/03/17 07:43:45;;;;;;;10.13;6.32;;;9.40;82.10;;;;;;5072924;28;20334;-31
2024/03/17 07:46:12;;;;;;;9.85;6.97;;;9.40;82.00;;;;;;5072803;28;20017;-33
2024/03/17 07:48:39;;;;;;;8.57;6.30;;;9.50;81.90;;;;;;5072598;28;20028;-37
2024/03/17 07:51:12;;;;;;;9.70;6.45;;;9.60;81.80;;;;;;5072730;28;20024;-33
2024/03/17 07:53:40;;;;;;;9.75;6.55;;;9.70;81.70;;;;;;5072900;28;20028;-35
2024/03/17 07:56:09;;;;;;;9.55;6.72;;;9.80;81.60;;;;;;5072617;28;20044;-32
2024/03/17 07:58:35;;;;;;;11.80;7.05;;;9.80;82.00;;;;;;5071065;28;20028;-30
2024/03/17 08:01:11;;;;;;;12.32;6.55;;;9.90;81.30;;;;;;5072352;28;20029;-30
2024/03/17 08:03:38;;;;;;;9.50;6.38;;;10.00;81.20;;;;;;5072620;28;20028;-36
2024/03/17 08:06:06;;;;;;;8.15;6.28;;;10.10;81.10;;;;;;5072420;28;20032;-33
2024/03/17 08:08:33;;;;;;;8.73;5.85;;;10.10;80.90;;;;;;5072603;28;20031;-30
2024/03/17 08:10:58;;;;;;;8.57;5.70;;;10.20;80.90;;;;;;5072688;28;20389;-33
2024/03/17 08:13:24;;;;;;;7.03;4.93;;;10.20;80.80;;;;;;5072592;28;20051;-41
2024/03/17 08:15:58;;;;;;;6.28;4.72;;;10.30;80.70;;;;;;5072464;28;20047;-33
2024/03/17 08:18:25;;;;;;;7.15;4.85;;;10.30;80.50;;;;;;5072504;28;20361;-31
2024/03/17 08:20:50;;;;;;;6.05;4.75;;;10.40;80.40;;;;;;5072796;28;20539;-36
2024/03/17 08:23:16;;;;;;;6.97;4.60;;;10.50;80.20;;;;;;5072460;28;20020;-30
2024/03/17 08:25:42;;;;;;;6.18;4.30;;;10.50;80.00;;;;;;5072511;28;20049;-35
2024/03/17 08:28:07;;;;;;;6.20;4.25;;;10.60;79.80;;;;;;5072339;28;20389;-30
2024/03/17 08:30:33;;;;;;;6.93;4.43;;;10.60;79.70;;;;;;5072318;28;20032;-31
2024/03/17 08:33:00;;;;;;;6.95;4.97;;;10.70;79.60;;;;;;5072478;28;20648;-33
2024/03/17 08:35:26;;;;;;;7.72;5.10;;;10.80;79.40;;;;;;5072021;28;20795;-30
2024/03/17 08:37:54;;;;;;;7.85;4.88;;;10.80;79.20;;;;;;5072386;28;20029;-39
2024/03/17 08:40:20;;;;;;;7.88;5.00;;;10.90;79.10;;;;;;5072336;28;20036;-32
2024/03/17 08:42:45;;;;;;;7.20;4.60;;;10.90;78.90;;;;;;5072115;28;20025;-34
2024/03/17 08:45:12;;;;;;;5.78;4.22;;;11.00;78.70;;;;;;5072612;28;20035;-33
2024/03/17 08:47:38;;;;;;;7.28;4.47;;;11.10;78.50;;;;;;5072383;28;20080;-32
2024/03/17 08:50:04;;;;;;;7.00;4.40;;;11.20;78.50;;;;;;5072389;28;20484;-34
2024/03/17 08:52:31;;;;;;;8.15;4.78;;;11.30;78.30;;;;;;5070813;28;20094;-32
2024/03/17 08:54:58;;;;;;;6.53;4.40;;;11.30;78.10;;;;;;5072267;28;20035;-31
2024/03/17 08:57:23;;;;;;;4.65;3.72;;;11.30;78.00;;;;;;5071902;28;20087;-35
2024/03/17 08:59:51;;;;;;;6.63;4.20;;;11.40;77.90;;;;;;5072047;28;20057;-31
2024/03/17 09:02:17;;;;;;;6.35;4.05;;;11.40;77.80;;;;;;5072308;28;20028;-31
2024/03/17 09:04:42;;;;;;;6.40;4.20;;;11.40;77.70;;;;;;5070419;28;20481;-35
2024/03/17 09:07:08;;;;;;;5.97;4.30;;;11.40;77.50;;;;;;5071781;28;20032;-31
2024/03/17 09:09:34;;;;;;;6.82;4.28;;;11.40;77.50;;;;;;5071884;28;20040;-32
2024/03/17 09:11:59;;;;;;;7.60;4.80;;;11.50;77.40;;;;;;5071865;28;20420;-36
2024/03/17 09:14:25;;;;;;;5.45;4.43;;;11.50;77.40;;;;;;5074674;28;20036;-33
2024/03/17 09:16:51;;;;;;;5.30;3.88;;;11.50;77.20;;;;;;5075454;28;20036;-38
2024/03/17 09:19:16;;;;;;;7.57;4.18;;;11.60;77.10;;;;;;5075258;28;20499;-30
2024/03/17 09:21:42;;;;;;;5.43;3.80;;;11.60;77.00;;;;;;5075305;28;20031;-31
2024/03/17 09:24:08;;;;;;;5.10;3.85;;;11.60;77.00;;;;;;5075513;28;20090;-34
2024/03/17 09:26:35;;;;;;;4.88;3.50;;;11.70;76.90;;;;;;5075652;28;20461;-32
2024/03/17 09:29:03;;;;;;;5.50;3.63;;;11.70;76.90;;;;;;5075194;28;20033;-31
2024/03/17 09:31:30;;;;;;;4.68;3.47;;;11.80;76.70;;;;;;5075063;28;20115;-31
2024/03/17 09:33:56;;;;;;;5.30;3.33;;;11.80;76.60;;;;;;5074957;28;20044;-33
2024/03/17 09:36:21;;;;;;;5.55;3.97;;;11.80;76.70;;;;;;5074760;28;20052;-35
2024/03/17 09:38:48;;;;;;;4.75;3.50;;;11.80;76.60;;;;;;5075093;28;20067;-31
2024/03/17 09:41:28;;;;;;;5.65;3.85;;;11.80;76.50;;;;;;5075105;28;20024;-35
2024/03/17 09:43:55;;;;;;;6.35;3.70;;;11.80;76.30;;;;;;5074621;28;20056;-37
2024/03/17 09:46:23;;;;;;;4.50;4.00;;;11.80;76.30;;;;;;5074839;28;20393;-33
2024/03/17 09:48:49;;;;;;;7.25;4.10;;;11.80;76.30;;;;;;5074696;28;20037;-39
2024/03/17 09:51:23;;;;;;;5.38;3.80;;;11.90;76.20;;;;;;5073234;28;20139;-34
2024/03/17 09:53:48;;;;;;;;;;;12.00;76.10;;;;;;5073615;28;20033;-32
2024/03/17 09:56:18;;;;;;;5.32;3.58;;;12.00;76.10;;;;;;5074740;28;19909;-35
2024/03/17 09:58:48;;;;;;;5.05;3.55;;;12.00;76.00;;;;;;5074602;28;20048;-36
2024/03/17 10:01:14;;;;;;;5.22;3.90;;;12.10;76.00;;;;;;5074497;28;20052;-37
2024/03/17 10:03:40;;;;;;;5.38;4.10;;;12.20;75.90;;;;;;5074286;28;20021;-34
2024/03/17 10:06:06;;;;;;;4.55;3.83;;;12.20;75.50;;;;;;5074340;28;20465;-33
2024/03/17 10:08:33;;;;;;;4.97;3.97;;;12.30;75.40;;;;;;5072837;28;20037;-31
2024/03/17 10:10:59;;;;;;;5.35;4.13;;;12.40;75.30;;;;;;5072719;28;20024;-34
2024/03/17 10:13:25;;;;;;;5.25;3.75;;;12.50;75.20;;;;;;5074329;28;20043;-40
2024/03/17 10:15:51;;;;;;;6.28;4.63;;;12.50;75.10;;;;;;5074358;28;20428;-32
2024/03/17 10:18:26;;;;;;;4.03;3.55;;;12.60;74.80;;;;;;5073983;28;20052;-44
2024/03/17 10:20:56;;;;;;;6.47;4.30;;;12.70;74.70;;;;;;5074151;28;20025;-34
2024/03/17 10:23:22;;;;;;;5.55;4.25;;;12.80;74.70;;;;;;5073880;28;20099;-32
2024/03/17 10:25:48;;;;;;;6.95;4.05;;;12.90;74.50;;;;;;5073595;28;20116;-32
2024/03/17 10:28:15;;;;;;;5.80;4.10;;;12.90;74.40;;;;;;5073651;28;20086;-36
2024/03/17 10:30:42;;;;;;;6.15;4.13;;;13.00;74.30;;;;;;5074085;28;20044;-35
2024/03/17 10:33:22;;;;;;;8.07;4.25;;;13.10;74.30;;;;;;5073997;28;20029;-33
2024/03/17 10:35:48;;;;;;;6.78;4.30;;;13.20;74.10;;;;;;5073476;28;20562;-31
2024/03/17 10:38:14;;;;;;;7.38;4.15;;;13.20;73.90;;;;;;5073803;28;20027;-33
2024/03/17 10:40:40;;;;;;;5.30;3.88;;;13.30;73.90;;;;;;5073450;28;20457;-36
2024/03/17 10:43:06;;;;;;;6.50;3.95;;;13.40;73.90;;;;;;5073716;28;20116;-40
2024/03/17 10:45:38;;;;;;;6.07;4.05;;;13.40;73.90;;;;;;5073188;28;20426;-33
2024/03/17 10:48:11;;;;;;;5.32;3.65;;;13.50;73.80;;;;;;5073461;28;20036;-35
2024/03/17 10:50:38;;;;;;;5.53;4.03;;;13.50;73.60;;;;;;5073182;28;20036;-36
2024/03/17 10:53:08;;;;;;;5.07;3.85;;;13.60;73.70;;;;;;5073151;28;20075;-32
2024/03/17 10:55:46;;;;;;;3.97;3.50;;;13.60;73.70;;;;;;5073207;28;20024;-35
2024/03/17 10:58:27;;;;;;;5.93;3.80;;;13.60;73.90;;;;;;5073169;28;20032;-38
2024/03/17 11:00:53;;;;;;;5.25;3.60;;;13.60;73.50;;;;;;5073103;28;20050;-43
2024/03/17 11:03:19;;;;;;;5.75;4.20;;;13.60;73.50;;;;;;5073191;28;20254;-36
2024/03/17 11:05:48;;;;;;;5.95;3.70;;;13.70;73.30;;;;;;5072754;28;20029;-39
2024/03/17 11:08:16;;;;;;;6.38;4.03;;;13.70;73.30;;;;;;5072833;28;20198;-37
2024/03/17 11:10:53;;;;;;;6.15;4.05;;;13.70;73.20;;;;;;5072812;28;20032;-34
2024/03/17 11:13:29;;;;;;;5.93;3.72;;;13.70;73.00;;;;;;5072864;28;20021;-34
2024/03/17 11:15:57;;;;;;;7.10;4.32;;;13.70;73.00;;;;;;5072788;28;20050;-34
2024/03/17 11:18:23;;;;;;;6.75;3.95;;;13.60;72.90;;;;;;5072542;28;20030;-39
2024/03/17 11:21:07;;;;;;;5.32;3.90;;;13.60;72.90;;;;;;5072659;28;20029;-35
2024/03/17 11:23:33;;;;;;;5.00;4.00;;;13.60;72.90;;;;;;5072974;28;20028;-35
2024/03/17 11:26:03;;;;;;;4.88;4.07;;;13.60;73.30;;;;;;5072843;28;20036;-35
2024/03/17 11:28:41;;;;;;;5.00;3.60;;;13.60;73.10;;;;;;5072792;28;20489;-36
2024/03/17 11:31:35;;;;;;;4.60;3.55;;;13.50;73.50;;;;;;5072829;28;20029;-38
2024/03/17 11:34:03;;;;;;;5.63;3.80;;;13.50;74.00;;;;;;5072850;28;20117;-32
2024/03/17 11:36:28;;;;;;;4.78;3.60;;;13.50;74.00;;;;;;5071331;28;20385;-33
2024/03/17 11:38:57;;;;;;;4.18;3.47;;;13.50;73.90;;;;;;5072542;28;20036;-34
2024/03/17 11:41:57;;;;;;;5.43;3.30;;;13.50;74.50;;;;;;5072285;28;20033;-33
2024/03/17 11:46:55;;;;;;;5.05;3.67;;;13.60;74.50;;;;;;5072116;28;20150;-30
2024/03/17 11:49:26;;;;;;;5.40;3.72;;;13.70;74.40;;;;;;5072161;28;20068;-33
2024/03/17 11:51:53;;;;;;;4.30;3.55;;;13.70;74.00;;;;;;5072493;28;20041;-37
2024/03/17 11:54:24;;;;;;;5.07;3.50;;;13.70;74.50;;;;;;5072280;28;20047;-33
2024/03/17 11:56:51;;;;;;;4.93;3.53;;;13.70;74.60;;;;;;5071948;28;20044;-33
2024/03/17 11:59:19;;;;;;;5.22;3.35;;;13.70;74.50;;;;;;5072165;28;20091;-35
2024/03/17 12:01:47;;;;;;;6.40;3.60;;;13.80;74.70;;;;;;5071931;28;20032;-32
2024/03/17 12:04:14;;;;;;;4.93;3.90;;;13.80;74.60;;;;;;5072014;28;20024;-34
2024/03/17 12:06:43;;;;;;;5.97;4.20;;;13.80;74.40;;;;;;5071875;28;20162;-31
2024/03/17 12:09:31;;;;;;;5.97;4.38;;;13.80;73.70;;;;;;5071817;28;20024;-31
2024/03/17 12:12:06;;;;;;;6.50;4.53;;;13.80;73.50;;;;;;5072160;28;20028;-32
2024/03/17 12:14:32;;;;;;;7.65;5.40;;;13.70;73.70;;;;;;5072007;28;20528;-31
2024/03/17 12:17:02;;;;;;;7.50;5.18;;;13.70;74.10;;;;;;5071654;28;20029;-38
2024/03/17 12:19:28;;;;;;;7.45;5.40;;;13.70;74.00;;;;;;5071759;28;20029;-36
2024/03/17 12:21:56;;;;;;;15.25;7.75;;;13.60;74.00;;;;;;5071372;28;20025;-44
2024/03/17 12:24:26;;;;;;;13.18;6.97;;;13.60;75.10;;;;;;5071310;28;20205;-32
2024/03/17 12:26:55;;;;;;;11.18;6.82;;;13.60;75.10;;;;;;5071186;28;20116;-33
2024/03/17 12:29:40;;;;;;;7.95;6.25;;;13.60;76.10;;;;;;5071204;28;20103;-34
2024/03/17 12:32:13;;;;;;;8.77;6.15;;;13.60;75.20;;;;;;5071128;28;20024;-32
2024/03/17 12:34:39;;;;;;;6.45;5.03;;;13.70;74.90;;;;;;5071113;28;20058;-32
2024/03/17 12:37:05;;;;;;;8.88;6.00;;;13.70;74.60;;;;;;5070901;28;20045;-34
2024/03/17 12:39:34;;;;;;;9.20;6.85;;;13.80;75.40;;;;;;5070883;28;20090;-32
2024/03/17 12:42:11;;;;;;;10.45;6.10;;;13.90;75.60;;;;;;5071030;28;20078;-35
2024/03/17 12:44:51;;;;;;;10.60;5.95;;;13.90;75.10;;;;;;5071313;28;20048;-32
2024/03/17 12:47:18;;;;;;;8.60;6.18;;;14.00;75.30;;;;;;5072073;28;20044;-33
2024/03/17 12:49:55;;;;;;;12.18;6.05;;;14.00;75.70;;;;;;5075031;28;20016;-33
2024/03/17 12:52:24;;;;;;;7.28;5.10;;;14.00;75.00;;;;;;5075065;28;20431;-34
2024/03/17 13:00:34;;;;;;;9.77;5.40;;;14.00;74.30;;;;;;5074463;28;20393;-32
2024/03/17 13:03:05;;;;;;;8.00;6.03;;;14.00;76.00;;;;;;5074433;28;20025;-35
2024/03/17 13:05:34;;;;;;;8.75;5.40;;;14.00;76.40;;;;;;5074674;28;20025;-32